Time;durP1;ratioP1;P1;durP2;ratioP2;P2;SDS_P1;SDS_P2;PMS_P1;PMS_P2;Temp;Humidity;BMP_temperature;BMP_pressure;BME280_temperature;BME280_humidity;BME280_pressure;Samples;Min_cycle;Max_cycle;Signal;HPM_P1;HPM_P2
2022/03/31 00:00:48;;;;;;;3.20;2.80;;;7.80;1.00;;;;;;4971918;28;20210;-50
2022/03/31 00:03:17;;;;;;;5.00;3.00;;;7.70;1.00;;;;;;4970980;28;20264;-49
2022/03/31 00:05:45;;;;;;;4.13;3.63;;;7.60;1.00;;;;;;4973264;28;20300;-50
2022/03/31 00:08:13;;;;;;;2.37;2.17;;;7.40;99.90;;;;;;4975578;28;20689;-53
2022/03/31 00:10:43;;;;;;;4.67;3.20;;;7.40;1.00;;;;;;4974177;28;20299;-54
2022/03/31 00:13:12;;;;;;;4.63;2.37;;;7.50;1.00;;;;;;4974658;28;20332;-51
2022/03/31 00:15:40;;;;;;;8.17;3.13;;;7.50;1.00;;;;;;4972795;28;20324;-51
2022/03/31 00:18:08;;;;;;;4.37;2.73;;;7.50;99.90;;;;;;4970919;28;20354;-52
2022/03/31 00:20:36;;;;;;;5.43;3.17;;;7.40;99.90;;;;;;4970673;28;20261;-51
2022/03/31 00:23:05;;;;;;;4.17;2.93;;;7.40;1.00;;;;;;4973570;28;20206;-54
2022/03/31 00:25:32;;;;;;;4.00;3.07;;;7.30;1.00;;;;;;4971957;28;20663;-54
2022/03/31 00:28:00;;;;;;;3.70;3.10;;;7.50;1.00;;;;;;4975638;28;20213;-53
2022/03/31 00:30:27;;;;;;;6.23;3.30;;;7.50;1.00;;;;;;4975088;28;20213;-52
2022/03/31 00:32:54;;;;;;;4.60;3.20;;;7.40;1.00;;;;;;4974241;28;20361;-54
2022/03/31 00:35:21;;;;;;;7.20;3.43;;;7.40;39.40;;;;;;4974736;28;20292;-51
2022/03/31 00:37:47;;;;;;;5.37;3.33;;;7.50;99.90;;;;;;4976532;28;20241;-52
2022/03/31 00:40:18;;;;;;;3.93;3.20;;;7.30;99.90;;;;;;4974623;28;20203;-51
2022/03/31 00:42:47;;;;;;;3.57;2.87;;;7.10;1.00;;;;;;4974025;28;20197;-53
2022/03/31 00:45:16;;;;;;;6.50;3.60;;;7.10;99.10;;;;;;4975213;28;20640;-55
2022/03/31 00:47:43;;;;;;;5.53;3.23;;;7.10;99.90;;;;;;4976409;28;20210;-50
2022/03/31 00:50:13;;;;;;;4.43;3.20;;;7.00;1.00;;;;;;4976862;28;20329;-53
2022/03/31 00:52:41;;;;;;;5.03;3.37;;;7.00;99.90;;;;;;4978343;28;20687;-54
2022/03/31 00:55:09;;;;;;;4.17;3.37;;;7.00;1.00;;;;;;4978619;28;20234;-53
2022/03/31 00:57:37;;;;;;;5.63;3.90;;;7.00;1.00;;;;;;4978646;28;20264;-54
2022/03/31 01:00:07;;;;;;;4.97;3.47;;;6.90;1.00;;;;;;4973008;28;20622;-52
2022/03/31 01:02:35;;;;;;;6.77;3.87;;;6.70;99.90;;;;;;4974721;28;20200;-55
2022/03/31 01:05:03;;;;;;;5.87;3.57;;;6.80;1.00;;;;;;4973879;28;20611;-53
2022/03/31 01:07:34;;;;;;;5.30;3.73;;;6.90;1.00;;;;;;4977114;28;20310;-54
2022/03/31 01:10:01;;;;;;;6.63;4.00;;;7.00;99.90;;;;;;4975425;28;20197;-51
2022/03/31 01:12:30;;;;;;;4.40;3.33;;;6.80;1.00;;;;;;4975645;28;20206;-51
2022/03/31 01:15:17;;;;;;;6.20;3.90;;;6.70;1.00;;;;;;4974747;28;20260;-52
2022/03/31 01:17:47;;;;;;;4.80;3.50;;;6.80;99.90;;;;;;4972834;28;20225;-52
2022/03/31 01:20:19;;;;;;;7.10;4.00;;;6.60;99.90;;;;;;4971315;28;20597;-53
2022/03/31 01:22:47;;;;;;;6.27;3.60;;;6.80;99.90;;;;;;4974019;28;20199;-52
2022/03/31 01:25:15;;;;;;;4.93;3.37;;;6.60;99.90;;;;;;4976267;28;20206;-53
2022/03/31 01:27:44;;;;;;;6.00;3.87;;;6.70;99.90;;;;;;4974213;28;20197;-52
2022/03/31 01:30:14;;;;;;;4.90;3.73;;;6.60;99.90;;;;;;4974327;28;20327;-53
2022/03/31 01:32:43;;;;;;;6.33;3.57;;;6.40;1.00;;;;;;4972817;28;20252;-55
2022/03/31 01:35:10;;;;;;;7.00;3.50;;;6.50;1.00;;;;;;4974602;28;20263;-52
2022/03/31 01:37:37;;;;;;;6.80;4.20;;;6.40;1.00;;;;;;4973213;28;20244;-52
2022/03/31 01:40:05;;;;;;;6.80;4.37;;;6.30;42.90;;;;;;4977786;28;20289;-53
2022/03/31 01:42:34;;;;;;;5.93;4.30;;;6.30;65.90;;;;;;4973841;28;20325;-51
2022/03/31 01:45:01;;;;;;;5.30;4.03;;;6.20;99.90;;;;;;4972473;28;20224;-53
2022/03/31 01:47:28;;;;;;;5.03;4.40;;;6.00;99.90;;;;;;4970258;28;20215;-55
2022/03/31 01:49:55;;;;;;;3.90;3.50;;;6.20;99.90;;;;;;4970923;28;20278;-51
2022/03/31 01:52:22;;;;;;;3.87;3.43;;;6.10;99.90;;;;;;4972437;28;20762;-52
2022/03/31 01:54:49;;;;;;;2.90;2.60;;;6.10;87.70;;;;;;4973563;28;20338;-51
2022/03/31 01:57:17;;;;;;;4.80;2.50;;;6.20;17.00;;;;;;4971373;28;20202;-50
2022/03/31 01:59:44;;;;;;;3.37;2.63;;;5.70;10.30;;;;;;4970704;28;20199;-53
2022/03/31 02:02:12;;;;;;;2.80;2.60;;;5.40;99.90;;;;;;4972147;28;20691;-53
2022/03/31 02:04:41;;;;;;;2.23;2.00;;;5.40;99.90;;;;;;4971672;28;20214;-52
2022/03/31 02:07:09;;;;;;;2.37;1.87;;;5.50;99.90;;;;;;4969460;28;20345;-53
2022/03/31 02:09:36;;;;;;;2.13;1.93;;;5.30;99.90;;;;;;4972625;28;20642;-53
2022/03/31 02:12:04;;;;;;;1.70;1.50;;;5.20;99.90;;;;;;4971336;28;20784;-52
2022/03/31 02:14:33;;;;;;;1.60;1.50;;;5.00;99.90;;;;;;4972163;28;20527;-53
2022/03/31 02:17:00;;;;;;;1.23;1.13;;;5.10;99.90;;;;;;4971534;28;20245;-52
2022/03/31 02:19:26;;;;;;;1.53;1.20;;;5.00;99.90;;;;;;4969082;28;20705;-54
2022/03/31 02:21:55;;;;;;;0.80;0.80;;;4.90;99.90;;;;;;4969862;28;20576;-53
2022/03/31 02:24:22;;;;;;;1.17;1.07;;;4.70;99.90;;;;;;4970670;28;20204;-53
2022/03/31 02:26:48;;;;;;;1.30;1.20;;;4.60;99.90;;;;;;4970560;28;20212;-51
2022/03/31 02:29:16;;;;;;;1.10;1.00;;;4.40;99.90;;;;;;4972888;28;20213;-55
2022/03/31 02:31:43;;;;;;;0.80;0.80;;;4.40;99.90;;;;;;4972537;28;20714;-54
2022/03/31 02:34:10;;;;;;;1.00;0.90;;;4.30;99.90;;;;;;4973987;28;20611;-51
2022/03/31 02:36:36;;;;;;;0.90;0.83;;;4.30;99.90;;;;;;4971286;28;20242;-53
2022/03/31 02:39:03;;;;;;;0.80;0.80;;;4.30;99.90;;;;;;4973722;28;20240;-52
2022/03/31 02:41:30;;;;;;;1.20;1.10;;;4.10;99.90;;;;;;4970281;28;20196;-54
2022/03/31 02:43:57;;;;;;;1.83;1.10;;;4.10;99.90;;;;;;4971443;28;20202;-55
2022/03/31 02:46:25;;;;;;;0.80;0.63;;;4.10;99.90;;;;;;4971557;28;20206;-53
2022/03/31 02:48:53;;;;;;;1.57;1.27;;;4.20;99.90;;;;;;4970890;28;20540;-53
2022/03/31 02:51:23;;;;;;;1.30;1.20;;;4.20;99.90;;;;;;4972400;28;20568;-53
2022/03/31 02:56:37;;;;;;;0.97;0.73;;;4.00;99.90;;;;;;4971081;28;20205;-54
2022/03/31 02:59:04;;;;;;;0.90;0.90;;;4.00;99.90;;;;;;4971060;28;20265;-52
2022/03/31 03:01:31;;;;;;;1.73;1.10;;;4.00;99.90;;;;;;4972186;28;20214;-52
2022/03/31 03:03:58;;;;;;;0.97;0.97;;;4.10;99.90;;;;;;4972407;28;20245;-53
2022/03/31 03:06:25;;;;;;;1.47;1.30;;;4.10;99.90;;;;;;4971758;28;20233;-52
2022/03/31 03:08:54;;;;;;;3.27;2.10;;;4.30;99.90;;;;;;4973622;28;20264;-54
2022/03/31 03:11:22;;;;;;;2.53;2.00;;;4.10;99.90;;;;;;4972952;28;20299;-54
2022/03/31 03:13:49;;;;;;;2.20;2.00;;;3.90;99.90;;;;;;4970857;28;20701;-52
2022/03/31 03:16:16;;;;;;;1.53;1.43;;;3.90;99.90;;;;;;5000293;28;20205;-58
2022/03/31 03:18:43;;;;;;;1.70;1.47;;;4.00;99.90;;;;;;4967407;28;20199;-54
2022/03/31 03:21:10;;;;;;;1.63;1.53;;;4.10;99.90;;;;;;4970907;28;20570;-52
2022/03/31 03:23:38;;;;;;;2.00;1.60;;;4.10;99.90;;;;;;4974280;28;20294;-52
2022/03/31 03:26:06;;;;;;;1.77;1.60;;;4.10;99.90;;;;;;4968876;28;20635;-52
2022/03/31 03:28:36;;;;;;;2.20;1.73;;;3.90;99.90;;;;;;4972391;28;20210;-52
2022/03/31 03:31:07;;;;;;;1.87;1.50;;;4.00;99.90;;;;;;4970989;28;20630;-53
2022/03/31 03:33:34;;;;;;;1.70;1.60;;;3.90;99.90;;;;;;4969825;28;20262;-53
2022/03/31 03:36:03;;;;;;;1.83;1.50;;;3.80;99.90;;;;;;4971573;28;20666;-52
2022/03/31 03:38:31;;;;;;;2.10;1.50;;;3.90;99.90;;;;;;4972282;28;20281;-51
2022/03/31 03:40:58;;;;;;;1.47;1.20;;;3.90;99.90;;;;;;4971538;28;20199;-52
2022/03/31 03:43:26;;;;;;;2.73;1.50;;;3.90;99.90;;;;;;4973703;28;20224;-53
2022/03/31 03:45:53;;;;;;;1.20;1.10;;;3.90;99.90;;;;;;4970970;28;20302;-54
2022/03/31 03:48:22;;;;;;;1.93;1.30;;;3.90;99.90;;;;;;4972390;28;20210;-50
2022/03/31 03:50:49;;;;;;;1.47;1.13;;;3.90;99.90;;;;;;4969378;28;20640;-51
2022/03/31 03:53:16;;;;;;;1.83;1.40;;;3.90;99.90;;;;;;4972525;28;20549;-54
2022/03/31 03:55:42;;;;;;;1.17;1.07;;;3.90;99.90;;;;;;4972295;28;20211;-52
2022/03/31 03:58:09;;;;;;;1.37;1.27;;;3.90;99.90;;;;;;4969429;28;20222;-52
2022/03/31 04:00:37;;;;;;;1.17;1.00;;;3.80;99.90;;;;;;4969370;28;20291;-54
2022/03/31 04:03:05;;;;;;;1.43;0.97;;;3.80;99.90;;;;;;4973557;28;20245;-53
2022/03/31 04:05:32;;;;;;;1.50;1.07;;;3.80;99.90;;;;;;4974367;28;20232;-54
2022/03/31 04:07:59;;;;;;;1.20;1.10;;;3.80;99.90;;;;;;4974486;28;20230;-53
2022/03/31 04:10:26;;;;;;;0.80;0.80;;;3.90;99.90;;;;;;4972428;28;20220;-53
2022/03/31 04:12:53;;;;;;;1.17;1.00;;;4.00;99.90;;;;;;4972951;28;20210;-54
2022/03/31 04:15:19;;;;;;;1.47;1.10;;;3.80;99.90;;;;;;4974206;28;20420;-54
2022/03/31 04:17:46;;;;;;;1.37;1.10;;;3.90;99.90;;;;;;4974127;28;20201;-54
2022/03/31 04:20:13;;;;;;;1.17;1.00;;;3.80;99.90;;;;;;4976445;28;20679;-53
2022/03/31 04:22:41;;;;;;;1.63;1.30;;;3.70;99.90;;;;;;4974743;28;20217;-53
2022/03/31 04:25:10;;;;;;;1.40;1.10;;;3.90;99.90;;;;;;4973962;28;20313;-56
2022/03/31 04:27:38;;;;;;;1.40;1.00;;;3.90;99.90;;;;;;4972157;28;20289;-54
2022/03/31 04:30:08;;;;;;;1.13;1.03;;;3.70;99.90;;;;;;4973739;28;20266;-54
2022/03/31 04:32:36;;;;;;;1.13;1.00;;;3.80;99.90;;;;;;4973251;28;20277;-51
2022/03/31 04:35:03;;;;;;;2.60;0.70;;;3.80;99.90;;;;;;4974365;28;20805;-52
2022/03/31 04:37:30;;;;;;;1.17;1.00;;;3.60;99.90;;;;;;4975814;28;20214;-54
2022/03/31 04:39:57;;;;;;;1.37;0.80;;;3.70;99.90;;;;;;4976470;28;20214;-54
2022/03/31 04:42:24;;;;;;;1.20;1.10;;;3.60;99.90;;;;;;4975743;28;20264;-53
2022/03/31 04:44:51;;;;;;;1.47;1.20;;;3.70;99.90;;;;;;4975610;28;20620;-55
2022/03/31 04:47:18;;;;;;;1.37;1.23;;;3.90;99.90;;;;;;4972828;28;20233;-53
2022/03/31 04:49:45;;;;;;;0.83;0.83;;;3.90;99.90;;;;;;4972868;28;20844;-56
2022/03/31 04:52:12;;;;;;;0.90;0.77;;;3.80;99.90;;;;;;4975599;28;20728;-53
2022/03/31 04:54:43;;;;;;;1.03;0.93;;;3.70;99.90;;;;;;4976643;28;20258;-55
2022/03/31 04:57:13;;;;;;;0.87;0.73;;;3.50;99.90;;;;;;4972709;28;20202;-53
2022/03/31 04:59:40;;;;;;;1.37;0.87;;;3.50;99.90;;;;;;4971308;28;20203;-54
2022/03/31 05:02:07;;;;;;;0.73;0.70;;;3.60;99.90;;;;;;4971730;28;20257;-51
2022/03/31 05:04:34;;;;;;;0.97;0.93;;;3.50;99.90;;;;;;4974801;28;20754;-54
2022/03/31 05:07:01;;;;;;;1.17;0.90;;;3.40;99.90;;;;;;4990829;28;20339;-51
2022/03/31 05:09:28;;;;;;;0.87;0.83;;;3.40;99.90;;;;;;4972353;28;20305;-56
2022/03/31 05:11:55;;;;;;;0.80;0.80;;;3.40;99.90;;;;;;4974627;28;20654;-54
2022/03/31 05:14:22;;;;;;;1.07;0.97;;;3.40;99.90;;;;;;4978385;28;20676;-53
2022/03/31 05:16:49;;;;;;;0.80;0.70;;;3.40;99.90;;;;;;4973908;28;20285;-56
2022/03/31 05:19:17;;;;;;;0.90;0.87;;;3.50;99.90;;;;;;4971082;28;20261;-54
2022/03/31 05:21:44;;;;;;;1.33;1.03;;;3.40;99.90;;;;;;4972283;28;20559;-54
2022/03/31 05:24:12;;;;;;;1.20;0.90;;;3.40;99.90;;;;;;4973506;28;20214;-55
2022/03/31 05:26:38;;;;;;;1.10;1.00;;;3.30;99.90;;;;;;4973616;28;20258;-52
2022/03/31 05:29:05;;;;;;;1.33;1.23;;;3.30;99.90;;;;;;4973480;28;20289;-51
2022/03/31 05:31:32;;;;;;;1.40;1.10;;;3.50;99.90;;;;;;4973313;28;20289;-56
2022/03/31 05:33:59;;;;;;;1.00;0.90;;;3.60;99.90;;;;;;4974476;28;20670;-53
2022/03/31 05:36:26;;;;;;;1.00;1.00;;;3.50;99.90;;;;;;4978852;28;20264;-53
2022/03/31 05:38:52;;;;;;;1.33;1.00;;;3.40;99.90;;;;;;4976058;28;20297;-54
2022/03/31 05:41:19;;;;;;;1.33;1.23;;;3.40;99.90;;;;;;4972749;28;20853;-55
2022/03/31 05:43:46;;;;;;;1.47;1.20;;;3.50;99.90;;;;;;4973656;28;20225;-55
2022/03/31 05:46:13;;;;;;;1.60;1.30;;;3.40;99.90;;;;;;4974033;28;20672;-53
2022/03/31 05:48:39;;;;;;;1.40;1.10;;;3.40;99.90;;;;;;4969298;28;20219;-54
2022/03/31 05:51:07;;;;;;;1.50;1.40;;;3.30;99.90;;;;;;4971799;28;20214;-56
2022/03/31 05:53:34;;;;;;;2.50;1.50;;;3.40;99.90;;;;;;4971120;28;20297;-53
2022/03/31 05:56:00;;;;;;;1.97;1.30;;;3.20;99.90;;;;;;4972716;28;20241;-51
2022/03/31 05:58:27;;;;;;;1.83;1.73;;;3.30;99.90;;;;;;4972771;28;22040;-54
2022/03/31 06:00:54;;;;;;;1.47;1.37;;;3.20;99.90;;;;;;4969949;28;21013;-54
2022/03/31 06:03:23;;;;;;;2.17;1.80;;;3.20;99.90;;;;;;4972843;28;20210;-53
2022/03/31 06:05:50;;;;;;;2.03;1.83;;;3.10;99.90;;;;;;4973965;28;20268;-51
2022/03/31 06:08:18;;;;;;;2.10;1.90;;;3.00;99.90;;;;;;4974645;28;20199;-53
2022/03/31 06:10:46;;;;;;;1.97;1.77;;;3.20;99.90;;;;;;4972301;28;20791;-55
2022/03/31 06:13:13;;;;;;;2.23;1.80;;;3.20;99.90;;;;;;4974179;28;20823;-54
2022/03/31 06:15:40;;;;;;;2.43;1.77;;;3.30;99.90;;;;;;4974284;28;20241;-53
2022/03/31 06:18:07;;;;;;;1.97;1.77;;;3.30;99.90;;;;;;4972384;28;20209;-52
2022/03/31 06:20:35;;;;;;;1.87;1.50;;;3.40;99.90;;;;;;4977898;28;20202;-54
2022/03/31 06:23:02;;;;;;;1.70;1.60;;;3.40;99.90;;;;;;4975733;28;20202;-51
2022/03/31 06:25:29;;;;;;;1.93;1.70;;;3.40;99.90;;;;;;4974536;28;20434;-51
2022/03/31 06:27:56;;;;;;;1.60;1.50;;;3.40;99.90;;;;;;4973884;28;20886;-56
2022/03/31 06:30:23;;;;;;;1.63;1.53;;;3.40;99.90;;;;;;4971509;28;20210;-59
2022/03/31 06:32:50;;;;;;;2.63;1.70;;;3.40;99.90;;;;;;4973209;28;20777;-54
2022/03/31 06:35:17;;;;;;;2.20;1.50;;;3.20;99.90;;;;;;4976909;28;20219;-54
2022/03/31 06:37:45;;;;;;;1.60;1.43;;;3.30;99.90;;;;;;4976115;28;20211;-54
2022/03/31 06:40:15;;;;;;;1.47;1.37;;;3.20;99.90;;;;;;4976073;28;20297;-51
2022/03/31 06:42:43;;;;;;;2.03;1.60;;;3.10;99.90;;;;;;4973922;28;20206;-53
2022/03/31 06:45:12;;;;;;;1.80;1.37;;;3.30;99.90;;;;;;4976001;28;20206;-53
2022/03/31 06:47:52;;;;;;;1.70;1.60;;;3.40;99.90;;;;;;4972791;28;20221;-52
2022/03/31 06:50:26;;;;;;;2.00;1.60;;;3.40;99.90;;;;;;4971374;28;20199;-52
2022/03/31 06:52:55;;;;;;;2.20;1.77;;;3.40;99.90;;;;;;4975352;28;20245;-53
2022/03/31 06:55:22;;;;;;;2.80;1.63;;;3.40;99.90;;;;;;4968070;28;20306;-53
2022/03/31 06:57:49;;;;;;;1.97;1.70;;;3.50;99.90;;;;;;4973848;28;20206;-54
2022/03/31 07:00:16;;;;;;;2.43;1.77;;;3.40;99.90;;;;;;4972758;28;20257;-52
2022/03/31 07:02:43;;;;;;;2.67;1.50;;;3.50;99.90;;;;;;4971727;28;20519;-51
2022/03/31 07:05:10;;;;;;;2.07;1.83;;;3.60;99.90;;;;;;4974305;28;20215;-52
2022/03/31 07:07:41;;;;;;;3.20;1.73;;;3.60;99.90;;;;;;4971665;28;20312;-52
2022/03/31 07:10:08;;;;;;;3.03;2.10;;;3.60;99.90;;;;;;4971201;28;20208;-52
2022/03/31 07:12:39;;;;;;;2.23;1.77;;;3.70;99.90;;;;;;4975621;28;20213;-54
2022/03/31 07:15:08;;;;;;;3.90;2.30;;;3.60;99.90;;;;;;4976782;28;21503;-53
2022/03/31 07:17:35;;;;;;;2.43;1.87;;;3.40;99.90;;;;;;4971145;28;20234;-54
2022/03/31 07:20:03;;;;;;;5.37;2.37;;;3.50;99.90;;;;;;4969077;28;20312;-55
2022/03/31 07:22:30;;;;;;;5.13;2.43;;;3.50;99.90;;;;;;4969933;28;20254;-54
2022/03/31 07:24:57;;;;;;;2.47;1.87;;;3.50;99.90;;;;;;4973655;28;20209;-53
2022/03/31 07:27:23;;;;;;;5.77;2.27;;;3.40;99.90;;;;;;4967559;28;20213;-56
2022/03/31 07:29:50;;;;;;;2.03;1.70;;;3.50;99.90;;;;;;4973502;28;20380;-54
2022/03/31 07:32:17;;;;;;;3.43;2.10;;;3.40;99.90;;;;;;4974383;28;20209;-53
2022/03/31 07:34:44;;;;;;;2.00;1.87;;;3.50;99.90;;;;;;4977788;28;20265;-51
2022/03/31 07:37:11;;;;;;;1.70;1.60;;;3.50;99.90;;;;;;4978822;28;20298;-51
2022/03/31 07:39:41;;;;;;;2.20;1.90;;;3.50;99.90;;;;;;4979345;28;20202;-55
2022/03/31 07:42:08;;;;;;;2.30;1.93;;;3.60;99.90;;;;;;4977646;28;20223;-53
2022/03/31 07:44:35;;;;;;;2.60;2.20;;;3.60;99.90;;;;;;4975830;28;20212;-54
2022/03/31 07:47:02;;;;;;;2.07;1.83;;;3.50;99.90;;;;;;4977248;28;20686;-54
2022/03/31 07:49:30;;;;;;;2.80;1.60;;;3.60;99.90;;;;;;4975840;28;20530;-52
2022/03/31 07:52:00;;;;;;;2.20;1.60;;;3.60;99.90;;;;;;4977471;28;20233;-56
2022/03/31 07:54:27;;;;;;;1.90;1.70;;;3.60;99.90;;;;;;4976792;28;20214;-53
2022/03/31 07:56:55;;;;;;;1.80;1.70;;;3.50;99.90;;;;;;4979316;28;20209;-53
2022/03/31 07:59:25;;;;;;;1.93;1.73;;;3.60;99.90;;;;;;4975984;28;20199;-54
2022/03/31 08:01:52;;;;;;;3.63;1.93;;;3.90;99.90;;;;;;4977982;28;20228;-52
2022/03/31 08:04:20;;;;;;;2.33;1.90;;;3.90;99.90;;;;;;4977071;28;20221;-53
2022/03/31 08:06:47;;;;;;;3.63;1.87;;;3.80;99.90;;;;;;4978941;28;20433;-54
2022/03/31 08:09:17;;;;;;;3.97;1.80;;;3.70;99.90;;;;;;4978632;28;20238;-53
2022/03/31 08:11:45;;;;;;;3.03;2.30;;;3.80;99.90;;;;;;4974244;28;20221;-54
2022/03/31 08:14:12;;;;;;;2.57;1.43;;;3.70;99.90;;;;;;4976704;28;20658;-54
2022/03/31 08:16:39;;;;;;;1.77;1.40;;;3.70;99.90;;;;;;4976457;28;20214;-53
2022/03/31 08:19:06;;;;;;;2.40;1.70;;;3.80;99.90;;;;;;4975340;28;20215;-53
2022/03/31 08:21:33;;;;;;;2.30;1.63;;;3.80;99.90;;;;;;4978262;28;20640;-52
2022/03/31 08:23:59;;;;;;;3.63;1.67;;;3.90;99.90;;;;;;4978029;28;20214;-54
2022/03/31 08:26:26;;;;;;;3.20;1.80;;;4.00;99.90;;;;;;4979057;28;20236;-53
2022/03/31 08:28:53;;;;;;;2.57;1.90;;;4.00;99.90;;;;;;4978302;28;20253;-52
2022/03/31 08:31:20;;;;;;;2.47;1.60;;;4.10;99.90;;;;;;4976440;28;20214;-52
2022/03/31 08:33:47;;;;;;;2.70;1.77;;;3.90;99.90;;;;;;4975638;28;20215;-53
2022/03/31 08:36:14;;;;;;;2.50;1.57;;;4.00;99.90;;;;;;4979017;28;20632;-52
2022/03/31 08:38:41;;;;;;;3.33;1.87;;;4.00;99.90;;;;;;4978537;28;20238;-54
2022/03/31 08:41:08;;;;;;;2.43;1.60;;;4.20;99.90;;;;;;4979690;28;20637;-52
2022/03/31 08:43:37;;;;;;;2.57;1.70;;;4.10;99.90;;;;;;4977311;28;20201;-54
2022/03/31 08:46:08;;;;;;;2.87;1.73;;;4.20;99.90;;;;;;4978821;28;20214;-53
2022/03/31 08:48:39;;;;;;;4.30;1.87;;;4.30;99.90;;;;;;4979045;28;20284;-52
2022/03/31 08:51:07;;;;;;;2.60;1.70;;;4.30;99.90;;;;;;4981991;28;20240;-54
2022/03/31 08:53:34;;;;;;;3.20;1.93;;;4.40;99.90;;;;;;4972897;28;20207;-52
2022/03/31 08:56:02;;;;;;;2.53;1.73;;;4.30;99.90;;;;;;4976639;28;20282;-53
2022/03/31 08:58:28;;;;;;;2.30;1.60;;;4.30;99.90;;;;;;4976015;28;20279;-53
2022/03/31 09:00:55;;;;;;;3.53;1.43;;;4.50;99.90;;;;;;4973739;28;20782;-53
2022/03/31 09:03:36;;;;;;;2.10;1.60;;;4.40;99.90;;;;;;4973666;28;20707;-54
2022/03/31 09:06:04;;;;;;;2.50;1.80;;;4.40;99.90;;;;;;4977955;28;20261;-53
2022/03/31 09:08:32;;;;;;;3.47;1.87;;;4.40;99.90;;;;;;4977080;28;20234;-52
2022/03/31 09:11:00;;;;;;;3.03;1.93;;;4.50;99.90;;;;;;4975680;28;20214;-57
2022/03/31 09:13:32;;;;;;;1.90;1.70;;;4.70;99.90;;;;;;4970625;28;20241;-53
2022/03/31 09:16:01;;;;;;;3.47;2.07;;;4.70;99.90;;;;;;4974869;28;20334;-59
2022/03/31 09:18:30;;;;;;;2.63;2.10;;;4.60;99.90;;;;;;4967473;28;20235;-54
2022/03/31 09:20:59;;;;;;;2.40;1.70;;;4.70;99.90;;;;;;4970872;28;20284;-55
2022/03/31 09:23:49;;;;;;;3.27;1.70;;;4.80;99.90;;;;;;4972742;28;20206;-53
2022/03/31 09:26:17;;;;;;;1.83;1.73;;;4.80;99.90;;;;;;4973354;28;20259;-52
2022/03/31 09:28:45;;;;;;;2.23;1.50;;;4.60;99.90;;;;;;4967121;28;20312;-57
2022/03/31 09:31:13;;;;;;;2.77;1.80;;;4.70;99.90;;;;;;4972006;28;20260;-54
2022/03/31 09:33:47;;;;;;;2.13;1.57;;;4.60;99.90;;;;;;4974180;28;20703;-55
2022/03/31 09:36:24;;;;;;;3.20;2.10;;;4.60;99.90;;;;;;4978148;28;20246;-54
2022/03/31 09:38:54;;;;;;;2.80;2.30;;;4.70;99.90;;;;;;4978228;28;20673;-54
2022/03/31 09:41:20;;;;;;;2.73;2.07;;;4.60;99.90;;;;;;4975208;28;20295;-53
2022/03/31 09:43:49;;;;;;;2.10;1.90;;;4.70;99.90;;;;;;4971692;28;20206;-54
2022/03/31 09:46:28;;;;;;;1.40;1.30;;;4.70;99.90;;;;;;4973822;28;20321;-54
2022/03/31 09:49:19;;;;;;;2.40;1.57;;;4.80;99.90;;;;;;4965019;28;20200;-53
2022/03/31 09:51:49;;;;;;;3.33;1.60;;;5.00;99.90;;;;;;4969626;28;20295;-52
2022/03/31 09:54:17;;;;;;;3.60;1.63;;;5.00;99.90;;;;;;4968079;28;20659;-54
2022/03/31 09:56:44;;;;;;;1.60;1.47;;;5.10;99.90;;;;;;4974679;28;20306;-54
2022/03/31 09:59:14;;;;;;;2.53;1.97;;;5.10;99.90;;;;;;4969839;28;20343;-55
2022/03/31 10:01:51;;;;;;;2.37;2.10;;;5.30;99.90;;;;;;4976994;28;20213;-52
2022/03/31 10:04:20;;;;;;;3.90;2.07;;;5.30;99.90;;;;;;4971146;28;20202;-54
2022/03/31 10:06:54;;;;;;;2.60;2.10;;;5.40;99.90;;;;;;4973801;28;20607;-52
2022/03/31 10:09:22;;;;;;;1.90;1.80;;;5.30;99.90;;;;;;4973828;28;20673;-51
2022/03/31 10:12:03;;;;;;;2.37;2.17;;;5.30;99.90;;;;;;4977437;28;20683;-52
2022/03/31 10:14:45;;;;;;;2.13;1.93;;;5.20;99.90;;;;;;4970655;28;20244;-53
2022/03/31 10:17:13;;;;;;;2.57;1.73;;;5.40;99.90;;;;;;4968114;28;20313;-52
2022/03/31 10:19:44;;;;;;;2.00;1.80;;;5.30;99.90;;;;;;4965549;28;20232;-54
2022/03/31 10:25:08;;;;;;;2.00;1.77;;;5.30;99.90;;;;;;4970737;28;20224;-53
2022/03/31 10:27:47;;;;;;;1.80;1.70;;;5.40;99.90;;;;;;4976311;28;20210;-53
2022/03/31 10:30:16;;;;;;;1.77;1.67;;;5.40;99.90;;;;;;4975458;28;20209;-50
2022/03/31 10:33:13;;;;;;;2.17;1.97;;;5.40;99.90;;;;;;4969948;28;20662;-56
2022/03/31 10:35:41;;;;;;;1.60;1.50;;;5.40;99.90;;;;;;4976025;28;20238;-52
2022/03/31 10:38:17;;;;;;;2.10;1.90;;;5.70;99.90;;;;;;4973955;28;20599;-52
2022/03/31 10:40:49;;;;;;;1.70;1.57;;;5.80;97.80;;;;;;4972567;28;20629;-54
2022/03/31 10:43:38;;;;;;;3.00;1.80;;;5.70;93.00;;;;;;4970933;28;20691;-51
2022/03/31 10:46:14;;;;;;;1.93;1.80;;;5.70;78.70;;;;;;4972255;28;20620;-53
2022/03/31 10:48:52;;;;;;;1.87;1.77;;;5.90;58.00;;;;;;4971836;28;20433;-53
2022/03/31 10:51:29;;;;;;;1.90;1.80;;;5.60;11.90;;;;;;4970818;28;20383;-56
2022/03/31 10:53:57;;;;;;;1.90;1.80;;;5.50;50.30;;;;;;4969086;28;20565;-55
2022/03/31 10:56:26;;;;;;;1.83;1.70;;;5.80;99.60;;;;;;4972537;28;20692;-54
2022/03/31 10:59:02;;;;;;;1.63;1.53;;;5.70;7.50;;;;;;4971718;28;20666;-52
2022/03/31 11:01:32;;;;;;;2.30;2.10;;;5.60;1.00;;;;;;4971611;28;20250;-53
2022/03/31 11:04:02;;;;;;;2.00;1.80;;;5.60;1.00;;;;;;4967262;28;20222;-51
2022/03/31 11:06:30;;;;;;;2.67;2.00;;;5.50;16.20;;;;;;4972018;28;20784;-53
2022/03/31 11:08:57;;;;;;;2.37;2.17;;;5.40;3.60;;;;;;4988937;28;20299;-51
2022/03/31 11:11:28;;;;;;;2.37;2.03;;;5.30;13.20;;;;;;4969545;28;20662;-51
2022/03/31 11:13:58;;;;;;;1.93;1.80;;;5.20;5.20;;;;;;4968172;28;20215;-52
2022/03/31 11:16:38;;;;;;;2.10;1.93;;;5.40;99.90;;;;;;4971897;28;20302;-51
2022/03/31 11:19:07;;;;;;;2.57;2.20;;;5.30;99.90;;;;;;4969894;28;20703;-52
2022/03/31 11:21:39;;;;;;;2.90;2.13;;;5.50;99.50;;;;;;4971070;28;20785;-54
2022/03/31 11:24:07;;;;;;;2.83;2.53;;;5.50;57.00;;;;;;4965546;28;20299;-53
2022/03/31 11:26:40;;;;;;;2.37;2.13;;;5.50;95.10;;;;;;4970819;28;20199;-54
2022/03/31 11:29:13;;;;;;;2.30;2.10;;;5.50;89.50;;;;;;4969421;28;20689;-54
2022/03/31 11:31:54;;;;;;;2.50;2.30;;;5.60;25.00;;;;;;4973001;28;20299;-54
2022/03/31 11:34:25;;;;;;;2.50;2.30;;;5.70;1.00;;;;;;4967189;28;20207;-54
2022/03/31 11:36:53;;;;;;;2.63;2.43;;;5.80;1.00;;;;;;4968024;28;20254;-53
2022/03/31 11:39:28;;;;;;;2.47;2.27;;;5.70;1.00;;;;;;4969847;28;20643;-52
2022/03/31 11:41:56;;;;;;;2.73;2.07;;;5.60;1.00;;;;;;4988758;28;21414;-54
2022/03/31 11:44:26;;;;;;;2.63;2.03;;;5.60;1.00;;;;;;4974005;28;20273;-55
2022/03/31 11:46:53;;;;;;;3.53;2.60;;;5.70;1.00;;;;;;4973919;28;20799;-52
2022/03/31 11:49:25;;;;;;;2.93;2.20;;;5.80;1.00;;;;;;4973367;28;20637;-52
2022/03/31 11:51:57;;;;;;;2.27;2.07;;;5.70;1.00;;;;;;4975619;28;20221;-53
2022/03/31 11:54:25;;;;;;;2.47;2.13;;;5.90;1.00;;;;;;4973226;28;20938;-53
2022/03/31 11:57:06;;;;;;;3.43;2.80;;;6.00;99.90;;;;;;4972882;28;20297;-53
2022/03/31 11:59:34;;;;;;;2.67;2.47;;;6.00;46.50;;;;;;4972321;28;20349;-55
2022/03/31 12:02:01;;;;;;;2.83;2.27;;;5.80;99.90;;;;;;4971596;28;20198;-52
2022/03/31 12:04:31;;;;;;;3.30;2.80;;;6.00;99.90;;;;;;4969606;28;20705;-54
2022/03/31 12:07:02;;;;;;;3.27;2.97;;;5.90;1.00;;;;;;4974422;28;20235;-54
2022/03/31 12:09:29;;;;;;;3.63;2.70;;;6.00;1.00;;;;;;4974317;28;20282;-53
2022/03/31 12:11:57;;;;;;;5.10;2.70;;;6.00;99.90;;;;;;4974703;28;20708;-51
2022/03/31 12:14:25;;;;;;;6.40;2.60;;;6.00;1.00;;;;;;4976041;28;20492;-54
2022/03/31 12:16:55;;;;;;;2.93;2.47;;;6.10;1.00;;;;;;4973405;28;20314;-52
2022/03/31 12:19:23;;;;;;;2.90;2.67;;;6.00;1.00;;;;;;4968879;28;20653;-55
2022/03/31 12:21:58;;;;;;;4.50;2.60;;;6.10;1.00;;;;;;4969648;28;20234;-54
2022/03/31 12:24:26;;;;;;;3.37;2.50;;;6.30;99.90;;;;;;4977694;28;20687;-54
2022/03/31 12:26:54;;;;;;;2.70;2.50;;;6.50;1.00;;;;;;4974581;28;20213;-54
2022/03/31 12:29:23;;;;;;;2.50;2.30;;;6.50;1.00;;;;;;4978369;28;20372;-52
2022/03/31 12:32:00;;;;;;;2.93;2.33;;;6.50;1.00;;;;;;4975740;28;20252;-55
2022/03/31 12:34:27;;;;;;;2.50;2.30;;;6.40;1.00;;;;;;4971632;28;20667;-51
2022/03/31 12:36:54;;;;;;;3.33;2.37;;;6.30;1.00;;;;;;4976360;28;20362;-52
2022/03/31 12:39:20;;;;;;;5.47;2.63;;;6.40;99.90;;;;;;4975486;28;20658;-55
2022/03/31 12:41:52;;;;;;;3.77;2.77;;;6.30;1.00;;;;;;4977317;28;20774;-53
2022/03/31 12:44:21;;;;;;;5.27;2.70;;;6.40;1.00;;;;;;4977580;28;20294;-52
2022/03/31 12:46:51;;;;;;;3.03;2.63;;;6.40;1.00;;;;;;4977784;28;20214;-53
2022/03/31 12:49:23;;;;;;;3.20;2.70;;;6.30;99.90;;;;;;4973190;28;20418;-54
2022/03/31 12:51:57;;;;;;;2.43;2.20;;;6.40;99.90;;;;;;4974733;28;20299;-53
2022/03/31 12:54:34;;;;;;;2.57;2.37;;;6.30;1.00;;;;;;4974764;28;20210;-52
2022/03/31 12:57:06;;;;;;;2.90;2.60;;;6.30;1.00;;;;;;4976132;28;20301;-52
2022/03/31 12:59:34;;;;;;;3.03;2.73;;;6.30;99.90;;;;;;4973254;28;20293;-53
2022/03/31 13:02:06;;;;;;;6.23;2.80;;;6.20;1.00;;;;;;4978934;28;20242;-53
2022/03/31 13:04:36;;;;;;;4.67;2.77;;;6.30;1.00;;;;;;4976766;28;20251;-56
2022/03/31 13:07:16;;;;;;;6.30;3.67;;;6.50;99.90;;;;;;4974639;28;20790;-53
2022/03/31 13:09:46;;;;;;;3.57;3.27;;;6.50;1.00;;;;;;4969968;28;20225;-52
2022/03/31 13:12:14;;;;;;;4.53;3.73;;;6.50;1.00;;;;;;4975968;28;20290;-51